M/V Manukai — WRGD — position and weather

sailwx.info

Track history (hours):
 
Tides and Currents Weather Stations Pressure Air Temp Water Temp Dewpoint Dewpoint Depression Visibility Wind Speed Wind Dir Waves Ship Positions

M/V Manukai

Owner: Matson Navigation Company, Inc., Oakland, CA. More information available from US FCC via Universal Licensing System and Coast Guard Vessel Documentation Center.

Last reported at 2017-Sep-26 00:00 UTC. Time now 2017-Sep-26 05:54 UTC.
Position N 48°48' W 179°24'.

Type: Ship (hazmat cat A). MMSI: 369296000.

Wind from 310 at 20 knots

Barometer 1024.0 mb
Air temperature 10.0 ° C
Visibility: greater than 10.8 NM
Dewpoint 8.8 ° C
Water temperature 10.7 ° C

Date/timePositionNaut miles runAvg speedWind from/ knotsBaromVisibWave heightAir tempDewpointWater temp
2017-Sep-26 00:00N 48°48' W 179°24'13522.4 310 / 201024.010.8 10.0 8.810.7
2017-Sep-25 18:00N 48°42' E 177°12'14724.6 320 / 121026.010.8 9.4 5.910.6
2017-Sep-25 12:00N 48°30' E 173°30'26922.4 020 / 111026.510.8 9.4 3.110.6
2017-Sep-25 00:00N 47°42' E 166°54'27623.0 060 / 51027.310.8 9.4 7.111.2
2017-Sep-24 12:00N 46°42' E 160°18'27022.5 090 / 61025.010.8 10.0 7.711.8
2017-Sep-24 00:00N 45°12' E 154°12'26822.3 100 / 71023.610.8 10.0 8.810.2
2017-Sep-23 12:00N 43°24' E 148°30'   120 / 151020.510.8 11.710.513.4
2017-Sep-20 21:46N 31°23' E 121°34'5021.7
2017-Sep-20 19:28N 31°05' E 122°29'4 9.4
2017-Sep-20 19:00N 31°06' E 122°24'714.3
2017-Sep-20 18:30N 31°08' E 122°16'715.0
2017-Sep-20 18:00N 31°12' E 122°09'714.6
2017-Sep-20 17:30N 31°15' E 122°01'714.4
2017-Sep-20 17:00N 31°16' E 121°53'612.2
2017-Sep-20 16:31N 31°18' E 121°46'610.5
2017-Sep-20 15:59N 31°21' E 121°40'5 9.8
2017-Sep-20 15:30N 31°23' E 121°35'1 1.5
2017-Sep-20 15:01N 31°23' E 121°34'0 0.0
2017-Sep-20 13:59N 31°23' E 121°34'0 0.1
2017-Sep-20 13:29N 31°23' E 121°34'0 0.1
2017-Sep-20 12:59N 31°23' E 121°34'0 0.0
2017-Sep-20 12:29N 31°23' E 121°34'0 0.0
2017-Sep-20 11:59N 31°23' E 121°34'0 0.0
2017-Sep-20 11:29N 31°23' E 121°34'0 0.0
2017-Sep-20 10:59N 31°23' E 121°34'0 0.0
2017-Sep-20 10:29N 31°23' E 121°34'0 0.0
2017-Sep-20 09:56N 31°23' E 121°34'0 0.0
2017-Sep-20 09:29N 31°23' E 121°34'0 0.0
2017-Sep-20 08:59N 31°23' E 121°34'0 0.0
2017-Sep-20 08:29N 31°23' E 121°34'0 0.0
2017-Sep-20 07:59N 31°23' E 121°34'0 0.0
2017-Sep-20 07:29N 31°23' E 121°34'0 0.0
2017-Sep-20 06:59N 31°23' E 121°34'0 0.0
2017-Sep-20 06:29N 31°23' E 121°34'0 0.1
2017-Sep-20 05:59N 31°23' E 121°34'0 0.1
2017-Sep-20 05:29N 31°23' E 121°34'0 0.0
2017-Sep-20 04:56N 31°23' E 121°34'0 0.0
2017-Sep-20 04:29N 31°23' E 121°34'0 0.0
2017-Sep-20 03:59N 31°23' E 121°34'0 0.0
2017-Sep-20 03:29N 31°23' E 121°34'0 0.0
2017-Sep-20 02:59N 31°23' E 121°34'0 0.0
2017-Sep-20 02:29N 31°23' E 121°34'0 0.0
2017-Sep-20 01:59N 31°23' E 121°34'0 0.0
2017-Sep-20 01:29N 31°23' E 121°34'0 0.0
2017-Sep-20 00:59N 31°23' E 121°34'0 0.0
2017-Sep-20 00:29N 31°23' E 121°34'0 0.0
2017-Sep-19 23:56N 31°23' E 121°34'0 0.1
2017-Sep-19 23:29N 31°23' E 121°34'0 0.1
2017-Sep-19 22:59N 31°23' E 121°34'0 0.0
2017-Sep-19 22:29N 31°23' E 121°34'0 0.0
2017-Sep-19 21:59N 31°23' E 121°34'0 0.0
2017-Sep-19 21:29N 31°23' E 121°34'0 0.0
2017-Sep-19 20:59N 31°23' E 121°34'0 0.0
2017-Sep-19 20:29N 31°23' E 121°34'0 0.0
2017-Sep-19 19:59N 31°23' E 121°34'0 0.0
2017-Sep-19 19:29N 31°23' E 121°34'0 0.0
2017-Sep-19 18:59N 31°23' E 121°34'0 0.0
2017-Sep-19 18:29N 31°23' E 121°34'0 0.1
2017-Sep-19 17:56N 31°23' E 121°34'0 0.1
2017-Sep-19 17:29N 31°23' E 121°34'0 0.0
2017-Sep-19 16:56N 31°23' E 121°34'0 0.0
2017-Sep-19 16:30N 31°23' E 121°34'0 0.8
2017-Sep-19 16:01N 31°23' E 121°34'0 0.0
2017-Sep-19 15:30N 31°23' E 121°34'2 3.4
2017-Sep-19 15:01N 31°23' E 121°36'5 9.3
2017-Sep-19 14:31N 31°20' E 121°41'510.2
2017-Sep-19 14:00N 31°18' E 121°46'611.5
2017-Sep-19 13:30N 31°16' E 121°53'612.4
2017-Sep-19 13:00N 31°15' E 121°60'612.6
2017-Sep-19 12:30N 31°13' E 122°07'714.5
2017-Sep-19 12:00N 31°09' E 122°14'611.9
2017-Sep-19 11:27N 31°06' E 122°21'1711.0
2017-Sep-19 09:53N 31°07' E 122°41'4312.5
2017-Sep-19 06:28N 30°41' E 123°21'1418.1
2017-Sep-19 05:41N 30°31' E 123°10'4319.9
2017-Sep-19 03:33N 29°53' E 122°48'222.8
2017-Sep-19 03:28N 29°52' E 122°47'1121.9
2017-Sep-19 02:57N 29°44' E 122°37'817.7
2017-Sep-19 02:30N 29°42' E 122°28'815.1
2017-Sep-19 02:00N 29°44' E 122°20'510.5
2017-Sep-19 01:31N 29°48' E 122°15'510.8
2017-Sep-19 01:00N 29°52' E 122°11'5 9.7
2017-Sep-19 00:30N 29°55' E 122°07'510.2
2017-Sep-19 00:00N 29°55' E 122°02'5 9.7
2017-Sep-18 23:30N 29°58' E 121°57'510.7
2017-Sep-18 23:00N 29°57' E 121°50'0 0.1
2017-Sep-18 22:30N 29°57' E 121°50'0 0.0
2017-Sep-18 22:00N 29°57' E 121°50'0 0.0
2017-Sep-18 19:46N 29°57' E 121°50'0 0.0
2017-Sep-18 16:51N 29°57' E 121°50'0 0.0
2017-Sep-18 16:26N 29°57' E 121°50'0 0.0
2017-Sep-18 16:00N 29°57' E 121°50'0 0.0
2017-Sep-18 15:30N 29°57' E 121°50'0 0.1
2017-Sep-18 15:00N 29°57' E 121°50'2 3.7
2017-Sep-18 14:30N 29°57' E 121°52'5 9.7
2017-Sep-18 14:00N 29°58' E 121°58'510.8
2017-Sep-18 13:30N 29°56' E 122°03'713.2
2017-Sep-18 13:00N 29°54' E 122°11'713.5
2017-Sep-18 12:30N 29°48' E 122°15'612.0
2017-Sep-18 12:00N 29°45' E 122°21'713.5
2017-Sep-18 11:30N 29°43' E 122°28'1114.6
2017-Sep-18 10:47N 29°40' E 122°40'  
2017-Sep-16 00:00N 24°06' E 129°54'   250 / 201007.610.8 28.324.529.3
Track history (hours):
 
Tides and Currents Weather Stations Pressure Air Temp Water Temp Dewpoint Dewpoint Depression Visibility Wind Speed Wind Dir Waves Ship Positions

M/V Manukai

Owner: Matson Navigation Company, Inc., Oakland, CA. More information available from US FCC via Universal Licensing System and Coast Guard Vessel Documentation Center.

Last reported at 2017-Sep-26 00:00 UTC. Time now 2017-Sep-26 05:54 UTC.
Position N 48°48' W 179°24'.

Type: Ship (hazmat cat A). MMSI: 369296000.

Wind from 310 at 20 knots

Barometer 1024.0 mb
Air temperature 10.0 ° C
Visibility: greater than 10.8 NM
Dewpoint 8.8 ° C
Water temperature 10.7 ° C

Date/timePositionNaut miles runAvg speedWind from/ knotsBaromVisibWave heightAir tempDewpointWater temp
2017-Sep-26 00:00N 48°48' W 179°24'13522.4 310 / 201024.010.8 10.0 8.810.7
2017-Sep-25 18:00N 48°42' E 177°12'14724.6 320 / 121026.010.8 9.4 5.910.6
2017-Sep-25 12:00N 48°30' E 173°30'26922.4 020 / 111026.510.8 9.4 3.110.6
2017-Sep-25 00:00N 47°42' E 166°54'27623.0 060 / 51027.310.8 9.4 7.111.2
2017-Sep-24 12:00N 46°42' E 160°18'27022.5 090 / 61025.010.8 10.0 7.711.8
2017-Sep-24 00:00N 45°12' E 154°12'26822.3 100 / 71023.610.8 10.0 8.810.2
2017-Sep-23 12:00N 43°24' E 148°30'   120 / 151020.510.8 11.710.513.4
2017-Sep-20 21:46N 31°23' E 121°34'5021.7
2017-Sep-20 19:28N 31°05' E 122°29'4 9.4
2017-Sep-20 19:00N 31°06' E 122°24'714.3
2017-Sep-20 18:30N 31°08' E 122°16'715.0
2017-Sep-20 18:00N 31°12' E 122°09'714.6
2017-Sep-20 17:30N 31°15' E 122°01'714.4
2017-Sep-20 17:00N 31°16' E 121°53'612.2
2017-Sep-20 16:31N 31°18' E 121°46'610.5
2017-Sep-20 15:59N 31°21' E 121°40'5 9.8
2017-Sep-20 15:30N 31°23' E 121°35'1 1.5
2017-Sep-20 15:01N 31°23' E 121°34'0 0.0
2017-Sep-20 13:59N 31°23' E 121°34'0 0.1
2017-Sep-20 13:29N 31°23' E 121°34'0 0.1
2017-Sep-20 12:59N 31°23' E 121°34'0 0.0
2017-Sep-20 12:29N 31°23' E 121°34'0 0.0
2017-Sep-20 11:59N 31°23' E 121°34'0 0.0
2017-Sep-20 11:29N 31°23' E 121°34'0 0.0
2017-Sep-20 10:59N 31°23' E 121°34'0 0.0
2017-Sep-20 10:29N 31°23' E 121°34'0 0.0
2017-Sep-20 09:56N 31°23' E 121°34'0 0.0
2017-Sep-20 09:29N 31°23' E 121°34'0 0.0
2017-Sep-20 08:59N 31°23' E 121°34'0 0.0
2017-Sep-20 08:29N 31°23' E 121°34'0 0.0
2017-Sep-20 07:59N 31°23' E 121°34'0 0.0
2017-Sep-20 07:29N 31°23' E 121°34'0 0.0
2017-Sep-20 06:59N 31°23' E 121°34'0 0.0
2017-Sep-20 06:29N 31°23' E 121°34'0 0.1
2017-Sep-20 05:59N 31°23' E 121°34'0 0.1
2017-Sep-20 05:29N 31°23' E 121°34'0 0.0
2017-Sep-20 04:56N 31°23' E 121°34'0 0.0
2017-Sep-20 04:29N 31°23' E 121°34'0 0.0
2017-Sep-20 03:59N 31°23' E 121°34'0 0.0
2017-Sep-20 03:29N 31°23' E 121°34'0 0.0
2017-Sep-20 02:59N 31°23' E 121°34'0 0.0
2017-Sep-20 02:29N 31°23' E 121°34'0 0.0
2017-Sep-20 01:59N 31°23' E 121°34'0 0.0
2017-Sep-20 01:29N 31°23' E 121°34'0 0.0
2017-Sep-20 00:59N 31°23' E 121°34'0 0.0
2017-Sep-20 00:29N 31°23' E 121°34'0 0.0
2017-Sep-19 23:56N 31°23' E 121°34'0 0.1
2017-Sep-19 23:29N 31°23' E 121°34'0 0.1
2017-Sep-19 22:59N 31°23' E 121°34'0 0.0
2017-Sep-19 22:29N 31°23' E 121°34'0 0.0
2017-Sep-19 21:59N 31°23' E 121°34'0 0.0
2017-Sep-19 21:29N 31°23' E 121°34'0 0.0
2017-Sep-19 20:59N 31°23' E 121°34'0 0.0
2017-Sep-19 20:29N 31°23' E 121°34'0 0.0
2017-Sep-19 19:59N 31°23' E 121°34'0 0.0
2017-Sep-19 19:29N 31°23' E 121°34'0 0.0
2017-Sep-19 18:59N 31°23' E 121°34'0 0.0
2017-Sep-19 18:29N 31°23' E 121°34'0 0.1
2017-Sep-19 17:56N 31°23' E 121°34'0 0.1
2017-Sep-19 17:29N 31°23' E 121°34'0 0.0
2017-Sep-19 16:56N 31°23' E 121°34'0 0.0
2017-Sep-19 16:30N 31°23' E 121°34'0 0.8
2017-Sep-19 16:01N 31°23' E 121°34'0 0.0
2017-Sep-19 15:30N 31°23' E 121°34'2 3.4
2017-Sep-19 15:01N 31°23' E 121°36'5 9.3
2017-Sep-19 14:31N 31°20' E 121°41'510.2
2017-Sep-19 14:00N 31°18' E 121°46'611.5
2017-Sep-19 13:30N 31°16' E 121°53'612.4
2017-Sep-19 13:00N 31°15' E 121°60'612.6
2017-Sep-19 12:30N 31°13' E 122°07'714.5
2017-Sep-19 12:00N 31°09' E 122°14'611.9
2017-Sep-19 11:27N 31°06' E 122°21'1711.0
2017-Sep-19 09:53N 31°07' E 122°41'4312.5
2017-Sep-19 06:28N 30°41' E 123°21'1418.1
2017-Sep-19 05:41N 30°31' E 123°10'4319.9
2017-Sep-19 03:33N 29°53' E 122°48'222.8
2017-Sep-19 03:28N 29°52' E 122°47'1121.9
2017-Sep-19 02:57N 29°44' E 122°37'817.7
2017-Sep-19 02:30N 29°42' E 122°28'815.1
2017-Sep-19 02:00N 29°44' E 122°20'510.5
2017-Sep-19 01:31N 29°48' E 122°15'510.8
2017-Sep-19 01:00N 29°52' E 122°11'5 9.7
2017-Sep-19 00:30N 29°55' E 122°07'510.2
2017-Sep-19 00:00N 29°55' E 122°02'5 9.7
2017-Sep-18 23:30N 29°58' E 121°57'510.7
2017-Sep-18 23:00N 29°57' E 121°50'0 0.1
2017-Sep-18 22:30N 29°57' E 121°50'0 0.0
2017-Sep-18 22:00N 29°57' E 121°50'0 0.0
2017-Sep-18 19:46N 29°57' E 121°50'0 0.0
2017-Sep-18 16:51N 29°57' E 121°50'0 0.0
2017-Sep-18 16:26N 29°57' E 121°50'0 0.0
2017-Sep-18 16:00N 29°57' E 121°50'0 0.0
2017-Sep-18 15:30N 29°57' E 121°50'0 0.1
2017-Sep-18 15:00N 29°57' E 121°50'2 3.7
2017-Sep-18 14:30N 29°57' E 121°52'5 9.7
2017-Sep-18 14:00N 29°58' E 121°58'510.8
2017-Sep-18 13:30N 29°56' E 122°03'713.2
2017-Sep-18 13:00N 29°54' E 122°11'713.5
2017-Sep-18 12:30N 29°48' E 122°15'612.0
2017-Sep-18 12:00N 29°45' E 122°21'713.5
2017-Sep-18 11:30N 29°43' E 122°28'1114.6
2017-Sep-18 10:47N 29°40' E 122°40'  
2017-Sep-16 00:00N 24°06' E 129°54'   250 / 201007.610.8 28.324.529.3

Dump ship's entire track history